CLT TRACON Summary / KCLT TAF
CLT TRACON Summary:
Expect VFR conditions under mostly clear skies in the TRACON airspace today. Surface winds will be mostly calm, but occasionally from the northwest at 3kts. No significant flight hazards are expected in the TRACON airspace.

Updated:8/28/2014 12:35 PM
CLT Terminal Aerodrome Forecast:

FTUS42 KGSP 282000 AAA
TAFCLT
TAF AMD
KCLT 282050Z 2821/2918 22005KT P6SM FEW050
     FM290300 00000KT P6SM FEW060
     FM291200 06004KT P6SM FEW024 SCT060=
CLT TRACON Area Remark:
NONE.
Convective Gate Forecast / Collaborative Convective Forecast Product / Vertical Wind Profile
Convective Gate Forecast
SIGMETS/ Southeast Radar & Satellite Loops (click on image to enlarge)

Southeast Radar Loop

 



USA.gov is the U.S. government's official web portal to all federal, state and local government web resources and services.